WetterOnline ( https://www.wetteronline.at )

Wetter aktuell Itzehoe

Aktuelles Wetter: Itzehoe (26m)

6-stündlich | Neueste Meldungen
Ortszeit Temperatur Wetter
Fr, 19.08. 2:00 19.2° C bedeckt
Do, 18.08. 20:00 20.8° C leicht bewölkt
Do, 18.08. 14:00 22.6° C bewölkt
Do, 18.08. 8:00 18.2° C wolkig
Do, 18.08. 2:00 19.4° C bedeckt
Mi, 17.08. 20:00 25.4° C wolkig
Mi, 17.08. 14:00 28.2° C bedeckt
Mi, 17.08. 8:00 17.5° C Nebel
Ortszeit Temperatur Wetter
Fr, 19.08. 4:00 18.8° C bedeckt
Fr, 19.08. 3:50 18.8° C bedeckt
Fr, 19.08. 3:40 18.8° C bedeckt
Fr, 19.08. 3:30 18.9° C bedeckt
Fr, 19.08. 3:20 18.9° C bedeckt
Fr, 19.08. 3:10 19.0° C bedeckt
Fr, 19.08. 3:00 19.1° C bedeckt
Fr, 19.08. 2:30 19.2° C bewölkt
Fr, 19.08. 2:00 19.2° C bedeckt
Fr, 19.08. 1:30 19.3° C bedeckt
Fr, 19.08. 1:00 19.3° C bedeckt
Ortszeit Relative Feuchte Sichtweite
Fr, 19.08. 2:00 89% 18 km
Do, 18.08. 20:00 81% 26 km
Do, 18.08. 14:00 76% 11 km
Do, 18.08. 8:00 95% 7 km
Do, 18.08. 2:00 92% 26 km
Mi, 17.08. 20:00 66% 26 km
Mi, 17.08. 14:00 47% 40 km
Mi, 17.08. 8:00 98% 1.2 km
Ortszeit Relative Feuchte Sichtweite
Fr, 19.08. 4:00 92% 12 km
Fr, 19.08. 3:50 92% -
Fr, 19.08. 3:40 91% -
Fr, 19.08. 3:30 91% 14 km
Fr, 19.08. 3:20 91% -
Fr, 19.08. 3:10 90% -
Fr, 19.08. 3:00 90% 17 km
Fr, 19.08. 2:30 89% 18 km
Fr, 19.08. 2:00 89% 18 km
Fr, 19.08. 1:30 89% 17 km
Fr, 19.08. 1:00 89% 19 km
Ortszeit Niederschlagsmenge Niederschlagsart
Fr, 19.08. 2:00 0.0 l/m2 in 6 Std. -
Do, 18.08. 20:00 0.0 l/m2 in 12 Std. -
Do, 18.08. 14:00 0.0 l/m2 in 6 Std. -
Do, 18.08. 8:00 10 l/m2 in 12 Std. -
Do, 18.08. 2:00 10 l/m2 in 6 Std. Regen, Niederschlag
Mi, 17.08. 20:00 0.1 l/m2 in 12 Std. -
Mi, 17.08. 14:00 0.1 l/m2 in 6 Std. Regen
Mi, 17.08. 8:00 0.0 l/m2 in 12 Std. -
Ortszeit Niederschlagsmenge Niederschlagsart
Fr, 19.08. 4:00 0.0 l/m2 in 1 Std. -
Fr, 19.08. 3:50 keine Meldung -
Fr, 19.08. 3:40 keine Meldung -
Fr, 19.08. 3:30 0.0 l/m2 in 1 Std. -
Fr, 19.08. 3:20 keine Meldung -
Fr, 19.08. 3:10 keine Meldung -
Fr, 19.08. 3:00 0.0 l/m2 in 1 Std. -
Fr, 19.08. 2:30 0.0 l/m2 in 1 Std. -
Fr, 19.08. 2:00 0.0 l/m2 in 1 Std. -
Fr, 19.08. 1:30 0.0 l/m2 in 1 Std. -
Fr, 19.08. 1:00 0.0 l/m2 in 1 Std. -
Ortszeit Stärke Spitze Richtung
km/h Bft. km/h Grad Sektor
Fr, 19.08. 2:00 6 1 20 320° NW
Do, 18.08. 20:00 7 2 22 220° SW
Do, 18.08. 14:00 4 1 18 230° SW
Do, 18.08. 8:00 2 1 13 30° NO
Do, 18.08. 2:00 7 2 32 50° NO
Mi, 17.08. 20:00 7 2 22 50° NO
Mi, 17.08. 14:00 6 1 20 100° O
Mi, 17.08. 8:00 4 1 7 50° NO
Ortszeit Stärke Spitze Richtung
km/h Bft. km/h Grad Sektor
Fr, 19.08. 4:00 7 2 15 320° NW
Fr, 19.08. 3:50 7 2 - 320° NW
Fr, 19.08. 3:40 7 2 - 320° NW
Fr, 19.08. 3:30 6 1 9 320° NW
Fr, 19.08. 3:20 6 1 - 320° NW
Fr, 19.08. 3:10 4 1 - 320° NW
Fr, 19.08. 3:00 4 1 14 310° NW
Fr, 19.08. 2:30 2 1 7 230° SW
Fr, 19.08. 2:00 6 1 15 320° NW
Fr, 19.08. 1:30 4 1 14 310° NW
Fr, 19.08. 1:00 7 2 14 320° NW
Ortszeit Untergrenze Bedeckung Gattung
total tief tief mittel hoch
Fr, 19.08. 2:00 210 m 8/8 8/8 - - -
Do, 18.08. 20:00 480 m 4/8 4/8 - - -
Do, 18.08. 14:00 510 m 7/8 7/8 - - -
Do, 18.08. 8:00 8700 m 7/8 0/8 - - -
Do, 18.08. 2:00 3300 m 8/8 8/8 - - -
Mi, 17.08. 20:00 4800 m 7/8 5/8 - - -
Mi, 17.08. 14:00 5400 m 8/8 8/8 - - -
Mi, 17.08. 8:00 <30 m 8/8 0/8 - - -
Ortszeit Bedeckungsgrad in Achtel und Wolkenuntergrenze
Fr, 19.08. 4:00 8(180m)
Fr, 19.08. 3:50 8(180m)
Fr, 19.08. 3:40 8
Fr, 19.08. 3:30 8(180m)
Fr, 19.08. 3:20 8(180m)
Fr, 19.08. 3:10 8
Fr, 19.08. 3:00 8(210m)
Fr, 19.08. 2:30 7(210m)
Fr, 19.08. 2:00 8(210m)
Fr, 19.08. 1:30 8(210m)
Fr, 19.08. 1:00 8(210m)
Ortszeit Luftdruck NN (hPa) Tendenz (hPa in 3 Std.)
Fr, 19.08. 2:00 1013 0,0
Do, 18.08. 20:00 1012 + 0,7
Do, 18.08. 14:00 1012 + 0,1
Do, 18.08. 8:00 1011 + 0,3
Do, 18.08. 2:00 1011 0,0
Mi, 17.08. 20:00 1011 - 0,6
Mi, 17.08. 14:00 1012 - 0,4
Mi, 17.08. 8:00 1012 + 0,4
Ortszeit Luftdruck NN (hPa) Tendenz (hPa in 3 Std.)
Fr, 19.08. 4:00 1012 - 0,4
Fr, 19.08. 3:50 1012 keine Meldung
Fr, 19.08. 3:40 1012 keine Meldung
Fr, 19.08. 3:30 1012 - 0,3
Fr, 19.08. 3:20 1012 keine Meldung
Fr, 19.08. 3:10 1012 keine Meldung
Fr, 19.08. 3:00 1013 - 0,2
Fr, 19.08. 2:30 1013 + 0,2
Fr, 19.08. 2:00 1013 0,0
Fr, 19.08. 1:30 1013 + 0,1
Fr, 19.08. 1:00 1013 - 0,1
Ortszeit Schneehöhe (cm)
Fr, 19.08. 2:00 -
Do, 18.08. 20:00 -
Do, 18.08. 14:00 -
Do, 18.08. 8:00 -
Do, 18.08. 2:00 -
Mi, 17.08. 20:00 -
Mi, 17.08. 14:00 -
Mi, 17.08. 8:00 -
Ortszeit Schneehöhe (cm)
Fr, 19.08. 4:00 -
Fr, 19.08. 3:50 -
Fr, 19.08. 3:40 -
Fr, 19.08. 3:30 -
Fr, 19.08. 3:20 -
Fr, 19.08. 3:10 -
Fr, 19.08. 3:00 -
Fr, 19.08. 2:30 -
Fr, 19.08. 2:00 -
Fr, 19.08. 1:30 -
Fr, 19.08. 1:00 -
Link zu dieser Seite / Seite empfehlen

Das Wetter in ...